createdAt,value
2023-08-08T00:00:01.766Z,22.14
2023-08-08T00:02:33.374Z,22.12
2023-08-08T00:05:01.108Z,22.09
2023-08-08T00:07:31.377Z,22.09
2023-08-08T00:09:58.688Z,22.06
2023-08-08T00:12:26.207Z,22.08
2023-08-08T00:14:54.913Z,22.02
2023-08-08T00:17:22.066Z,21.97
2023-08-08T00:19:49.504Z,22.00
2023-08-08T00:22:16.995Z,22.04
2023-08-08T00:24:44.241Z,21.97
2023-08-08T00:27:11.505Z,22.02
2023-08-08T00:29:38.886Z,21.99
2023-08-08T00:32:08.134Z,21.98
2023-08-08T00:34:35.619Z,21.96
2023-08-08T00:37:03.048Z,22.01
2023-08-08T00:39:30.306Z,21.98
2023-08-08T00:41:57.899Z,21.91
2023-08-08T00:44:25.617Z,21.88
2023-08-08T00:46:53.156Z,21.84
2023-08-08T00:49:22.225Z,21.84
2023-08-08T00:51:49.625Z,21.83
2023-08-08T00:54:18.484Z,21.82
2023-08-08T00:56:45.750Z,21.74
2023-08-08T00:59:15.063Z,21.68
2023-08-08T01:01:42.685Z,21.67
2023-08-08T01:04:10.329Z,21.63
2023-08-08T01:06:45.136Z,21.60
2023-08-08T01:09:19.235Z,21.56
2023-08-08T01:11:49.779Z,21.53
2023-08-08T01:14:18.465Z,21.51
2023-08-08T01:16:46.156Z,21.46
2023-08-08T01:19:22.294Z,21.47
2023-08-08T01:21:54.465Z,21.39
2023-08-08T01:24:24.676Z,21.35
2023-08-08T01:26:52.077Z,21.33
2023-08-08T01:29:19.773Z,21.33
2023-08-08T01:31:46.988Z,21.25
2023-08-08T01:34:15.473Z,21.23
2023-08-08T01:36:49.032Z,21.20
2023-08-08T01:39:21.467Z,21.21
2023-08-08T01:41:54.047Z,21.22
2023-08-08T01:44:22.225Z,21.17
2023-08-08T01:46:49.685Z,21.09
2023-08-08T01:49:17.025Z,21.04
2023-08-08T01:51:44.315Z,21.01
2023-08-08T01:54:11.814Z,21.02
2023-08-08T01:56:39.081Z,20.92
2023-08-08T01:59:08.143Z,20.87
2023-08-08T02:01:36.507Z,20.84
2023-08-08T02:04:03.895Z,20.85
2023-08-08T02:06:31.167Z,20.83
2023-08-08T02:08:59.236Z,20.82
2023-08-08T02:11:26.544Z,20.75
2023-08-08T02:13:54.757Z,20.71
2023-08-08T02:16:23.535Z,20.71
2023-08-08T02:18:51.066Z,20.66
2023-08-08T02:21:21.512Z,20.65
2023-08-08T02:23:49.991Z,20.65
2023-08-08T02:26:17.281Z,20.58
2023-08-08T02:28:45.029Z,20.49
2023-08-08T02:31:12.348Z,20.48
2023-08-08T02:33:41.067Z,20.48
2023-08-08T02:36:08.460Z,20.40
2023-08-08T02:38:35.953Z,20.36
2023-08-08T02:41:03.261Z,20.35
2023-08-08T02:43:30.813Z,20.32
2023-08-08T02:45:58.185Z,20.38
2023-08-08T02:48:26.231Z,20.38
2023-08-08T02:50:55.633Z,20.40
2023-08-08T02:53:26.050Z,20.37
2023-08-08T02:55:53.310Z,20.36
2023-08-08T02:58:20.629Z,20.36
2023-08-08T03:00:48.222Z,20.35
2023-08-08T03:03:18.038Z,20.38
2023-08-08T03:05:47.283Z,20.40
2023-08-08T03:08:18.555Z,20.42
2023-08-08T03:10:46.021Z,20.47
2023-08-08T03:13:13.842Z,20.48
2023-08-08T03:15:42.707Z,20.54
2023-08-08T03:18:10.559Z,20.60
2023-08-08T03:20:37.915Z,20.59
2023-08-08T03:23:06.498Z,20.63
2023-08-08T03:25:35.392Z,20.66
2023-08-08T03:28:03.762Z,20.65
2023-08-08T03:30:31.138Z,20.63
2023-08-08T03:32:59.213Z,20.63
2023-08-08T03:35:26.540Z,20.65
2023-08-08T03:37:54.004Z,20.65
2023-08-08T03:40:21.342Z,20.64
2023-08-08T03:42:50.083Z,20.59
2023-08-08T03:45:17.436Z,20.63
2023-08-08T03:47:44.709Z,20.62
2023-08-08T03:50:13.105Z,20.61
2023-08-08T03:52:40.606Z,20.58
2023-08-08T03:55:12.145Z,20.53
2023-08-08T03:57:40.596Z,20.49
2023-08-08T04:00:09.998Z,20.46
2023-08-08T04:02:43.391Z,20.44
2023-08-08T04:05:10.975Z,20.46
2023-08-08T04:07:38.421Z,20.42
2023-08-08T04:10:06.714Z,20.40
2023-08-08T04:12:34.306Z,20.39
2023-08-08T04:15:02.807Z,20.41
2023-08-08T04:17:35.544Z,20.39
2023-08-08T04:20:02.917Z,20.40
2023-08-08T04:22:32.259Z,20.41
2023-08-08T04:24:59.600Z,20.44
2023-08-08T04:27:27.065Z,20.41
2023-08-08T04:29:54.475Z,20.39
2023-08-08T04:32:21.745Z,20.40
2023-08-08T04:34:50.745Z,20.40
2023-08-08T04:37:17.967Z,20.36
2023-08-08T04:39:45.378Z,20.32
2023-08-08T04:42:12.854Z,20.21
2023-08-08T04:44:40.187Z,19.85
2023-08-08T04:47:07.883Z,19.55
2023-08-08T04:49:35.112Z,19.38
2023-08-08T04:52:04.098Z,19.36
2023-08-08T04:54:31.406Z,19.41
2023-08-08T04:56:58.905Z,19.46
2023-08-08T04:59:26.092Z,19.54
2023-08-08T05:01:53.469Z,19.57
2023-08-08T05:04:20.856Z,19.62
2023-08-08T05:06:48.236Z,19.64
2023-08-08T05:09:17.091Z,19.70
2023-08-08T05:11:44.551Z,19.76
2023-08-08T05:14:11.841Z,19.78
2023-08-08T05:16:39.140Z,19.83
2023-08-08T05:19:06.543Z,19.91
2023-08-08T05:21:33.805Z,20.00
2023-08-08T05:24:01.398Z,20.08
2023-08-08T05:26:30.272Z,20.26
2023-08-08T05:28:57.599Z,20.30
2023-08-08T05:31:24.812Z,20.36
2023-08-08T05:33:52.160Z,20.44
2023-08-08T05:36:19.436Z,20.57
2023-08-08T05:38:46.744Z,20.76
2023-08-08T05:41:13.967Z,21.02
2023-08-08T05:43:42.647Z,21.30
2023-08-08T05:46:10.010Z,21.52
2023-08-08T05:48:37.316Z,21.70
2023-08-08T05:51:06.189Z,21.79
2023-08-08T05:53:33.881Z,21.76
2023-08-08T05:56:01.413Z,21.74
2023-08-08T05:58:28.761Z,21.69
2023-08-08T06:00:57.461Z,21.74
2023-08-08T06:03:24.900Z,21.79
2023-08-08T06:05:52.148Z,21.82
2023-08-08T06:08:19.708Z,21.86
2023-08-08T06:10:46.964Z,21.89
2023-08-08T06:13:14.294Z,21.93
2023-08-08T06:15:41.663Z,22.03
2023-08-08T06:18:10.737Z,22.16
2023-08-08T06:20:38.370Z,22.27
2023-08-08T06:23:06.020Z,22.33
2023-08-08T06:25:33.232Z,22.40
2023-08-08T06:28:00.716Z,22.39
2023-08-08T06:30:28.191Z,22.36
2023-08-08T06:32:55.581Z,22.31
2023-08-08T06:35:24.536Z,22.25
2023-08-08T06:37:51.764Z,22.30
2023-08-08T06:40:19.189Z,22.47
2023-08-08T06:42:46.696Z,22.73
2023-08-08T06:45:14.261Z,22.94
2023-08-08T06:47:41.561Z,23.15
2023-08-08T06:50:09.886Z,23.46
2023-08-08T06:52:38.617Z,23.76
2023-08-08T06:55:06.825Z,24.12
2023-08-08T06:57:34.938Z,24.42
2023-08-08T07:00:02.310Z,24.76
2023-08-08T07:02:32.169Z,24.83
2023-08-08T07:04:59.915Z,24.65
2023-08-08T07:07:27.569Z,24.44
2023-08-08T07:09:56.295Z,24.28
2023-08-08T07:12:23.568Z,24.10
2023-08-08T07:14:50.873Z,23.83
2023-08-08T07:17:18.531Z,23.68
2023-08-08T07:19:45.868Z,23.65
2023-08-08T07:22:13.193Z,23.67
2023-08-08T07:24:40.738Z,23.72
2023-08-08T07:27:09.683Z,23.87
2023-08-08T07:29:37.048Z,23.93
2023-08-08T07:32:05.717Z,23.92
2023-08-08T07:34:33.560Z,23.88
2023-08-08T07:37:01.304Z,23.91
2023-08-08T07:39:29.003Z,24.08
2023-08-08T07:41:56.440Z,24.24
2023-08-08T07:44:25.160Z,24.34
2023-08-08T07:46:52.655Z,24.35
2023-08-08T07:49:20.362Z,24.38
2023-08-08T07:51:47.744Z,24.37
2023-08-08T07:54:14.961Z,24.50
2023-08-08T07:56:43.967Z,24.70
2023-08-08T07:59:11.353Z,24.81
2023-08-08T08:01:40.493Z,24.84
2023-08-08T08:04:08.531Z,24.86
2023-08-08T08:06:35.842Z,24.85
2023-08-08T08:09:04.511Z,24.90
2023-08-08T08:11:31.747Z,25.09
2023-08-08T08:13:59.082Z,25.30
2023-08-08T08:16:26.629Z,25.47
2023-08-08T08:18:55.334Z,25.59
2023-08-08T08:21:22.731Z,25.59
2023-08-08T08:23:50.043Z,25.59
2023-08-08T08:26:17.396Z,25.73
2023-08-08T08:28:44.744Z,25.97
2023-08-08T08:31:12.110Z,26.32
2023-08-08T08:33:39.384Z,26.58
2023-08-08T08:36:08.181Z,26.80
2023-08-08T08:38:35.499Z,27.02
2023-08-08T08:41:04.571Z,27.22
2023-08-08T08:43:32.226Z,27.37
2023-08-08T08:46:02.263Z,27.51
2023-08-08T08:48:29.684Z,27.45
2023-08-08T08:50:57.042Z,27.32
2023-08-08T08:53:26.075Z,27.15
2023-08-08T08:55:54.975Z,27.03
2023-08-08T08:58:23.608Z,27.08
2023-08-08T09:00:52.196Z,27.00
2023-08-08T09:03:20.933Z,26.92
2023-08-08T09:05:49.379Z,26.86
2023-08-08T09:08:17.909Z,26.97
2023-08-08T09:10:46.744Z,27.05
2023-08-08T09:13:14.173Z,27.14
2023-08-08T09:15:41.829Z,27.14
2023-08-08T09:18:09.390Z,27.13
2023-08-08T09:20:36.956Z,27.13
2023-08-08T09:23:04.441Z,27.15
2023-08-08T09:25:31.746Z,27.13
2023-08-08T09:28:00.825Z,27.12
2023-08-08T09:30:28.618Z,27.13
2023-08-08T09:32:59.640Z,27.15
2023-08-08T09:35:27.152Z,27.15
2023-08-08T09:37:55.732Z,27.14
2023-08-08T09:40:24.384Z,27.04
2023-08-08T09:42:52.555Z,26.88
2023-08-08T09:45:22.006Z,26.68
2023-08-08T09:47:50.819Z,26.48
2023-08-08T09:50:19.679Z,26.35
2023-08-08T09:52:47.684Z,26.21
2023-08-08T09:55:16.153Z,26.06
2023-08-08T09:57:43.838Z,26.03
2023-08-08T10:00:17.097Z,26.04
2023-08-08T10:02:47.789Z,26.15
2023-08-08T10:05:17.356Z,26.35
2023-08-08T10:07:45.463Z,26.46
2023-08-08T10:10:12.901Z,26.50
2023-08-08T10:12:41.102Z,26.46
2023-08-08T10:15:09.902Z,26.50
2023-08-08T10:17:38.367Z,26.48
2023-08-08T10:20:13.550Z,26.45
2023-08-08T10:22:44.638Z,26.41
2023-08-08T10:25:19.859Z,26.35
2023-08-08T10:27:47.295Z,26.33
2023-08-08T10:30:15.523Z,26.35
2023-08-08T10:32:44.790Z,26.26
2023-08-08T10:35:13.949Z,26.20
2023-08-08T10:37:42.352Z,26.15
2023-08-08T10:40:12.627Z,26.12
2023-08-08T10:42:46.987Z,26.10
2023-08-08T10:45:16.425Z,25.97
2023-08-08T10:47:46.361Z,25.93
2023-08-08T10:50:17.329Z,25.91
2023-08-08T10:52:56.149Z,25.90
2023-08-08T10:55:24.861Z,25.84
2023-08-08T10:57:57.270Z,25.73
2023-08-08T11:00:27.877Z,25.65
2023-08-08T11:02:56.974Z,25.56
2023-08-08T11:05:28.856Z,25.55
2023-08-08T11:07:56.800Z,25.58
2023-08-08T11:10:24.435Z,25.66
2023-08-08T11:12:57.716Z,25.67
2023-08-08T11:15:25.173Z,25.83
2023-08-08T11:17:53.857Z,25.93
2023-08-08T11:20:21.955Z,25.99
2023-08-08T11:22:53.805Z,26.06
2023-08-08T11:25:21.806Z,25.97
2023-08-08T11:27:53.155Z,26.00
2023-08-08T11:30:20.704Z,26.10
2023-08-08T11:33:15.370Z,26.09
2023-08-08T11:35:36.576Z,26.14
2023-08-08T11:38:06.054Z,26.28
2023-08-08T11:40:33.996Z,26.50
2023-08-08T11:43:02.082Z,26.73
2023-08-08T11:45:29.601Z,26.82
2023-08-08T11:47:57.766Z,26.99
2023-08-08T11:50:28.529Z,27.12
2023-08-08T11:52:56.739Z,27.15
2023-08-08T11:55:30.469Z,27.14
2023-08-08T11:58:01.025Z,26.91
2023-08-08T12:00:31.213Z,26.76
2023-08-08T12:03:00.007Z,26.80
2023-08-08T12:05:27.976Z,26.83
2023-08-08T12:07:55.258Z,26.82
2023-08-08T12:10:24.993Z,26.80
2023-08-08T12:12:58.269Z,26.77
2023-08-08T12:15:29.746Z,26.86
2023-08-08T12:18:16.048Z,26.85
2023-08-08T12:20:43.416Z,26.81
2023-08-08T12:23:11.158Z,26.93
2023-08-08T12:25:39.524Z,27.10
2023-08-08T12:28:08.394Z,27.28
2023-08-08T12:30:35.832Z,27.68
2023-08-08T12:33:03.227Z,28.07
2023-08-08T12:35:30.615Z,28.36
2023-08-08T12:37:58.016Z,28.81
2023-08-08T12:40:26.577Z,29.14
2023-08-08T12:42:53.874Z,29.07
2023-08-08T12:45:23.049Z,28.86
2023-08-08T12:47:50.355Z,28.61
2023-08-08T12:50:17.939Z,28.37
2023-08-08T12:52:45.220Z,28.06
2023-08-08T12:55:13.225Z,27.81
2023-08-08T12:57:41.784Z,27.58
2023-08-08T13:00:10.217Z,27.29
2023-08-08T13:02:39.741Z,27.04
2023-08-08T13:05:08.417Z,26.95
2023-08-08T13:07:35.676Z,26.80
2023-08-08T13:10:03.032Z,26.79
2023-08-08T13:12:31.988Z,27.11
2023-08-08T13:14:59.682Z,27.49
2023-08-08T13:17:27.076Z,27.67
2023-08-08T13:19:55.910Z,27.74
2023-08-08T13:22:23.476Z,27.86
2023-08-08T13:24:51.037Z,27.63
2023-08-08T13:27:18.257Z,27.36
2023-08-08T13:29:45.602Z,27.07
2023-08-08T13:32:12.933Z,26.92
2023-08-08T13:34:40.252Z,26.81
2023-08-08T13:37:09.130Z,26.78
2023-08-08T13:39:36.630Z,26.82
2023-08-08T13:42:04.658Z,26.87
2023-08-08T13:44:32.438Z,27.57
2023-08-08T13:46:59.828Z,28.29
2023-08-08T13:49:27.736Z,28.92
2023-08-08T13:51:55.684Z,29.36
2023-08-08T13:54:24.351Z,29.67
2023-08-08T13:56:51.850Z,29.86
2023-08-08T13:59:19.092Z,30.06
2023-08-08T14:01:46.467Z,30.28
2023-08-08T14:04:13.830Z,30.54
2023-08-08T14:06:41.159Z,30.40
2023-08-08T14:09:10.460Z,29.94
2023-08-08T14:11:39.755Z,29.48
2023-08-08T14:14:07.336Z,29.01
2023-08-08T14:16:34.783Z,29.05
2023-08-08T14:19:02.033Z,29.42
2023-08-08T14:21:29.304Z,29.86
2023-08-08T14:23:56.854Z,30.18
2023-08-08T14:26:24.480Z,30.42
2023-08-08T14:28:56.017Z,30.50
2023-08-08T14:31:23.629Z,29.99
2023-08-08T14:33:51.106Z,29.38
2023-08-08T14:36:18.472Z,28.92
2023-08-08T14:38:46.677Z,28.52
2023-08-08T14:41:14.455Z,28.19
2023-08-08T14:43:41.741Z,27.95
2023-08-08T14:46:10.480Z,27.71
2023-08-08T14:48:38.256Z,27.59
2023-08-08T14:51:05.525Z,27.46
2023-08-08T14:53:33.137Z,27.35
2023-08-08T14:56:01.051Z,27.28
2023-08-08T14:58:28.320Z,27.23
2023-08-08T15:00:56.194Z,27.17
2023-08-08T15:03:25.238Z,27.11
2023-08-08T15:05:52.498Z,27.01
2023-08-08T15:08:19.900Z,26.96
2023-08-08T15:10:47.198Z,26.85
2023-08-08T15:13:14.604Z,26.68
2023-08-08T15:15:42.029Z,26.46
2023-08-08T15:18:09.614Z,26.35
2023-08-08T15:20:38.344Z,26.26
2023-08-08T15:23:05.623Z,26.14
2023-08-08T15:25:32.968Z,26.06
2023-08-08T15:28:00.276Z,25.99
2023-08-08T15:30:27.765Z,25.92
2023-08-08T15:32:55.310Z,25.84
2023-08-08T15:35:22.851Z,25.73
2023-08-08T15:37:51.586Z,25.62
2023-08-08T15:40:18.853Z,25.54
2023-08-08T15:42:47.667Z,25.48
2023-08-08T15:45:15.052Z,25.46
2023-08-08T15:47:42.385Z,25.43
2023-08-08T15:50:10.452Z,25.40
2023-08-08T15:52:38.398Z,25.31
2023-08-08T15:55:09.856Z,25.27
2023-08-08T15:57:37.975Z,25.24
2023-08-08T16:00:07.313Z,25.16
2023-08-08T16:02:40.340Z,25.14
2023-08-08T16:05:08.332Z,25.15
2023-08-08T16:07:35.645Z,25.13
2023-08-08T16:10:03.470Z,25.04
2023-08-08T16:12:33.737Z,24.95
2023-08-08T16:15:01.206Z,24.94
2023-08-08T16:17:32.723Z,24.98
2023-08-08T16:20:00.911Z,25.00
2023-08-08T16:22:28.279Z,24.98
2023-08-08T16:24:55.424Z,24.96
2023-08-08T16:27:22.914Z,24.89
2023-08-08T16:29:51.622Z,24.83
2023-08-08T16:32:19.105Z,24.75
2023-08-08T16:34:46.899Z,24.67
2023-08-08T16:37:14.476Z,24.64
2023-08-08T16:39:41.728Z,24.58
2023-08-08T16:42:09.594Z,24.55
2023-08-08T16:44:37.030Z,24.51
2023-08-08T16:47:07.697Z,24.49
2023-08-08T16:49:35.242Z,24.39
2023-08-08T16:52:03.272Z,24.35
2023-08-08T16:54:34.523Z,24.36
2023-08-08T16:57:02.258Z,24.25
2023-08-08T16:59:29.741Z,24.19
2023-08-08T17:01:57.083Z,24.13
2023-08-08T17:04:25.750Z,24.06
2023-08-08T17:06:53.115Z,24.00
2023-08-08T17:09:20.404Z,23.92
2023-08-08T17:11:47.660Z,23.83
2023-08-08T17:14:15.259Z,23.76
2023-08-08T17:16:42.698Z,23.68
2023-08-08T17:19:11.077Z,23.62
2023-08-08T17:21:39.742Z,23.56
2023-08-08T17:24:07.482Z,23.47
2023-08-08T17:26:34.650Z,23.34
2023-08-08T17:29:02.244Z,23.25
2023-08-08T17:31:29.812Z,23.23
2023-08-08T17:33:59.277Z,23.19
2023-08-08T17:36:27.175Z,23.18
2023-08-08T17:38:55.797Z,23.14
2023-08-08T17:41:23.088Z,23.12
2023-08-08T17:43:50.349Z,23.09
2023-08-08T17:46:17.862Z,23.05
2023-08-08T17:48:45.139Z,23.02
2023-08-08T17:51:12.678Z,22.95
2023-08-08T17:53:39.936Z,22.94
2023-08-08T17:56:08.653Z,22.91
2023-08-08T17:58:36.155Z,22.88
2023-08-08T18:01:03.548Z,22.86
2023-08-08T18:03:30.983Z,22.89
2023-08-08T18:05:58.319Z,22.88
2023-08-08T18:08:25.538Z,22.87
2023-08-08T18:10:52.846Z,22.84
2023-08-08T18:13:21.545Z,22.79
2023-08-08T18:15:50.416Z,22.77
2023-08-08T18:18:17.864Z,22.75
2023-08-08T18:20:45.340Z,22.76
2023-08-08T18:23:12.770Z,22.74
2023-08-08T18:25:43.534Z,22.72
2023-08-08T18:28:10.953Z,22.67
2023-08-08T18:30:39.831Z,22.64
2023-08-08T18:33:07.434Z,22.65
2023-08-08T18:35:34.748Z,22.58
2023-08-08T18:38:02.067Z,22.56
2023-08-08T18:40:29.470Z,22.56
2023-08-08T18:42:56.914Z,22.56
2023-08-08T18:45:24.526Z,22.58
2023-08-08T18:47:53.246Z,22.58
2023-08-08T18:50:20.935Z,22.58
2023-08-08T18:52:50.547Z,22.57
2023-08-08T18:55:19.983Z,22.58
2023-08-08T18:57:47.319Z,22.61
2023-08-08T19:00:14.831Z,22.62
2023-08-08T19:02:43.346Z,22.58
2023-08-08T19:05:12.364Z,22.57
2023-08-08T19:07:39.719Z,22.57
2023-08-08T19:10:08.415Z,22.57
2023-08-08T19:12:36.366Z,22.59
2023-08-08T19:15:04.058Z,22.62
2023-08-08T19:17:41.773Z,22.64
2023-08-08T19:20:18.592Z,22.61
2023-08-08T19:22:45.925Z,22.61
2023-08-08T19:25:13.209Z,22.58
2023-08-08T19:27:40.621Z,22.59
2023-08-08T19:30:10.406Z,22.60
2023-08-08T19:32:37.821Z,22.62
2023-08-08T19:35:06.071Z,22.62
2023-08-08T19:37:34.926Z,22.58
2023-08-08T19:40:02.810Z,22.53
2023-08-08T19:42:32.040Z,22.50
2023-08-08T19:44:59.400Z,22.49
2023-08-08T19:47:26.715Z,22.44
2023-08-08T19:49:54.179Z,22.51
2023-08-08T19:52:21.521Z,22.49
2023-08-08T19:54:50.647Z,22.45
2023-08-08T19:57:17.985Z,22.42
2023-08-08T19:59:45.306Z,22.36
2023-08-08T20:02:13.472Z,22.29
2023-08-08T20:04:40.724Z,22.23
2023-08-08T20:07:08.184Z,22.20
2023-08-08T20:09:35.376Z,22.14
2023-08-08T20:12:04.560Z,22.08
2023-08-08T20:14:33.095Z,22.05
2023-08-08T20:17:00.723Z,22.03
2023-08-08T20:19:28.260Z,22.03
2023-08-08T20:21:57.479Z,22.02
2023-08-08T20:24:28.037Z,22.00
2023-08-08T20:26:55.297Z,21.97
2023-08-08T20:29:23.973Z,21.92
2023-08-08T20:31:51.338Z,21.87
2023-08-08T20:34:18.776Z,21.82
2023-08-08T20:36:46.178Z,21.83
2023-08-08T20:39:16.249Z,21.82
2023-08-08T20:41:44.603Z,21.79
2023-08-08T20:44:11.938Z,21.76
2023-08-08T20:46:40.553Z,21.71
2023-08-08T20:49:08.216Z,21.70
2023-08-08T20:51:35.610Z,21.69
2023-08-08T20:54:03.238Z,21.67
2023-08-08T20:56:30.617Z,21.64
2023-08-08T20:58:57.819Z,21.62
2023-08-08T21:01:25.525Z,21.60
2023-08-08T21:03:54.141Z,21.57
2023-08-08T21:06:21.301Z,21.54
2023-08-08T21:08:48.480Z,21.54
2023-08-08T21:11:15.673Z,21.53
2023-08-08T21:13:43.407Z,21.52
2023-08-08T21:16:11.352Z,21.50
2023-08-08T21:18:39.133Z,21.49
2023-08-08T21:21:07.725Z,21.50
2023-08-08T21:23:35.025Z,21.48
2023-08-08T21:26:02.354Z,21.46
2023-08-08T21:28:30.533Z,21.42
2023-08-08T21:30:58.031Z,21.39
2023-08-08T21:33:25.272Z,21.37
2023-08-08T21:35:52.684Z,21.33
2023-08-08T21:38:21.645Z,21.32
2023-08-08T21:40:49.017Z,21.30
2023-08-08T21:43:16.486Z,21.27
2023-08-08T21:45:43.863Z,21.24
2023-08-08T21:48:11.234Z,21.21
2023-08-08T21:50:38.667Z,21.19
2023-08-08T21:53:06.245Z,21.19
2023-08-08T21:55:34.916Z,21.18
2023-08-08T21:58:03.329Z,21.20
2023-08-08T22:00:30.825Z,21.21
2023-08-08T22:02:58.194Z,21.23
2023-08-08T22:05:25.718Z,21.25
2023-08-08T22:07:53.082Z,21.26
2023-08-08T22:10:20.906Z,21.24
2023-08-08T22:12:55.660Z,21.24
2023-08-08T22:15:23.181Z,21.22
2023-08-08T22:18:04.763Z,21.18
2023-08-08T22:20:33.657Z,21.15
2023-08-08T22:23:13.720Z,21.15
2023-08-08T22:25:45.304Z,21.17
2023-08-08T22:28:14.018Z,21.15
2023-08-08T22:30:41.313Z,21.11
2023-08-08T22:33:08.612Z,21.08
2023-08-08T22:35:36.147Z,21.03
2023-08-08T22:38:03.887Z,20.99
2023-08-08T22:40:31.320Z,20.98
2023-08-08T22:42:58.741Z,20.97
2023-08-08T22:45:28.942Z,20.97
2023-08-08T22:47:56.644Z,20.95
2023-08-08T22:50:24.668Z,20.94
2023-08-08T22:52:52.185Z,20.90
2023-08-08T22:55:19.441Z,20.86
2023-08-08T22:57:47.126Z,20.82
2023-08-08T23:00:15.200Z,20.82
2023-08-08T23:02:44.043Z,20.80
2023-08-08T23:05:11.382Z,20.81
2023-08-08T23:07:39.384Z,20.81
2023-08-08T23:10:07.753Z,20.76
2023-08-08T23:12:34.994Z,20.78
2023-08-08T23:15:02.275Z,20.77
2023-08-08T23:17:37.568Z,20.77
2023-08-08T23:20:07.548Z,20.77
2023-08-08T23:22:34.784Z,20.71
2023-08-08T23:25:02.140Z,20.71
2023-08-08T23:27:32.706Z,20.65
2023-08-08T23:29:59.948Z,20.63
2023-08-08T23:32:27.369Z,20.63
2023-08-08T23:34:55.042Z,20.62
2023-08-08T23:37:23.725Z,20.64
2023-08-08T23:39:51.014Z,20.64
2023-08-08T23:42:18.744Z,20.66
2023-08-08T23:44:46.380Z,20.66
2023-08-08T23:47:13.887Z,20.65
2023-08-08T23:49:41.066Z,20.62
2023-08-08T23:52:08.405Z,20.59
2023-08-08T23:54:37.178Z,20.65
2023-08-08T23:57:05.213Z,20.65
2023-08-08T23:59:32.883Z,20.66
